North Platte Regional Airport Lee Bird Field North Platte US
ICAO: KLBF
IATA: LBF
Category: Medium
Scheduled Services: Yes

Elevation: 2777 ft
TransAlt. 18000 ft.

Airport Communications:
ASOS:118.425
CLNC DEL:132.7
DENVER CNTR:132.7
COLUMBUS RDO:122.5
CTAF/UNICOM:123

KLBF Zoom In..

If you have problems with the map follow the link
https://www.worldairports.se/pages/airport.php?
ICAO=KLBF

Runways:

(A) RW 12 length 8001 ft width 150 ft
---- / hdg 117

(B) RW 17 length 4436 ft width 100 ft
---- / hdg 172

(C) RW 30 length 8001 ft width 150 ft
ILS 111.50 / hdg 297

(D) RW 35 length 4436 ft width 100 ft
---- / hdg 352

Location; KLBF
Day. 13 / Time. 19.53 Zulu
* Altimeter: 29.80
* Temperature: 05° c. 41°f.
* Wind from: 230° Speed 11 kn.
Dewpoint: 02° c.
Visibility: 10 Statute Miles.
Clouds: Overcast 6500 ft.

KLBF 131953Z AUTO 23011KT 10SM OVC065 05/02 A2980 RMK AO2 SLP104 T00500017


Wind From 230°
Speed 11 kn.

 
 
jpsmedia worldairports.se 2019   terms of use